Time;durP1;ratioP1;P1;durP2;ratioP2;P2;SDS_P1;SDS_P2;PMS_P1;PMS_P2;Temp;Humidity;BMP_temperature;BMP_pressure;BME280_temperature;BME280_humidity;BME280_pressure;Samples;Min_cycle;Max_cycle;Signal;HPM_P1;HPM_P2
2022/06/09 00:01:59;;;;;;;6.97;0.60;;;;;;;20.50;50.45;100830.47;16142685;19;129725;-54
2022/06/09 00:07:25;;;;;;;;;;;;;;;20.49;50.59;100838.00;16147423;19;129415;-54
2022/06/09 00:12:50;;;;;;;9.23;0.85;;;;;;;20.55;50.87;100845.31;16147419;19;128982;-57
2022/06/09 00:18:12;;;;;;;8.45;0.70;;;;;;;20.57;50.78;100848.63;16146722;19;128923;-56
2022/06/09 00:23:35;;;;;;;12.32;0.85;;;;;;;20.59;50.63;100845.63;16143781;19;129459;-56
2022/06/09 00:28:58;;;;;;;3.63;0.60;;;;;;;20.59;50.45;100853.94;16147645;19;129315;-56
2022/06/09 00:34:19;;;;;;;2.33;0.43;;;;;;;20.57;50.85;100853.38;16146814;19;130034;-56
2022/06/09 00:39:41;;;;;;;5.40;0.70;;;;;;;20.56;50.47;100857.25;16146820;19;129297;-55
2022/06/09 00:45:24;;;;;;;4.97;0.60;;;;;;;20.56;50.62;100871.13;16139358;19;129155;-54
2022/06/09 00:50:51;;;;;;;1.80;0.60;;;;;;;20.54;50.93;100870.56;16141838;19;129188;-56
2022/06/09 00:56:15;;;;;;;6.13;0.63;;;;;;;20.52;50.99;100859.72;16147182;19;130173;-54
2022/06/09 01:01:37;;;;;;;4.35;0.90;;;;;;;20.51;50.86;100874.72;16145118;19;129123;-54
2022/06/09 01:07:10;;;;;;;2.58;0.50;;;;;;;20.51;50.89;100871.94;16145167;19;129656;-54
2022/06/09 01:12:35;;;;;;;2.30;0.70;;;;;;;20.50;51.11;100884.13;16145652;19;130151;-54
2022/06/09 01:18:09;;;;;;;2.47;0.73;;;;;;;20.47;50.70;100881.88;16138364;19;129319;-55
2022/06/09 01:23:43;;;;;;;3.83;0.68;;;;;;;20.47;50.65;100887.44;16140485;19;128913;-55
2022/06/09 01:29:26;;;;;;;2.53;0.60;;;;;;;20.47;50.93;100890.22;16143401;19;129620;-53
2022/06/09 01:35:04;;;;;;;2.13;0.52;;;;;;;20.45;51.18;100892.41;16143491;19;129505;-54
2022/06/09 01:40:31;;;;;;;2.15;0.70;;;;;;;20.44;51.19;100899.91;16142995;19;129506;-54
2022/06/09 01:46:09;;;;;;;2.97;0.75;;;;;;;20.43;51.06;100892.69;16136859;19;129548;-55
2022/06/09 01:51:35;;;;;;;4.32;0.52;;;;;;;20.42;50.78;100891.00;16137709;19;130385;-55
2022/06/09 01:57:35;;;;;;;2.00;0.40;;;;;;;20.40;51.30;100903.47;16138259;19;128971;-53
2022/06/09 02:03:09;;;;;;;6.88;0.50;;;;;;;20.42;51.05;100906.84;16126688;19;129326;-56
2022/06/09 02:08:34;;;;;;;3.30;0.70;;;;;;;20.40;51.24;100917.38;16130523;19;129251;-54
2022/06/09 02:13:57;;;;;;;3.47;0.57;;;;;;;20.39;50.88;100918.47;16133498;19;130244;-55
2022/06/09 02:19:18;;;;;;;3.03;0.45;;;;;;;20.38;51.30;100931.50;16132415;19;130379;-53
2022/06/09 02:24:40;;;;;;;1.17;0.43;;;;;;;20.38;50.90;100933.44;16128107;19;129511;-53
2022/06/09 02:30:04;;;;;;;1.05;0.30;;;;;;;20.39;50.97;100943.47;16129525;19;130859;-55
2022/06/09 02:35:26;;;;;;;4.03;0.90;;;;;;;20.37;51.13;100946.50;16134982;19;129228;-55
2022/06/09 02:40:49;;;;;;;2.65;0.52;;;;;;;20.37;50.96;100954.00;16138658;19;129292;-53
2022/06/09 02:46:11;;;;;;;2.00;0.52;;;;;;;20.36;51.35;100952.31;16134956;19;129131;-56
2022/06/09 02:51:38;;;;;;;1.10;0.22;;;;;;;20.36;51.29;100961.50;16133734;19;130027;-55
2022/06/09 02:57:00;;;;;;;1.15;0.38;;;;;;;20.35;51.43;100964.53;16136141;19;129301;-55
2022/06/09 03:02:22;;;;;;;2.25;0.40;;;;;;;20.35;50.76;100961.75;16136528;19;129949;-55
2022/06/09 03:07:44;;;;;;;1.30;0.43;;;;;;;20.34;51.37;100977.59;16149862;19;129018;-54
2022/06/09 03:13:06;;;;;;;4.15;0.35;;;;;;;20.34;51.36;100982.28;16152496;19;129890;-55
2022/06/09 03:18:29;;;;;;;3.15;0.57;;;;;;;20.32;51.35;100977.00;16154149;19;129644;-54
2022/06/09 03:23:52;;;;;;;2.15;0.40;;;;;;;20.33;51.15;100977.81;16149186;19;129549;-55
2022/06/09 03:29:13;;;;;;;3.38;0.60;;;;;;;20.32;51.32;100998.38;16147356;19;129359;-56
2022/06/09 03:34:36;;;;;;;1.17;0.50;;;;;;;20.31;51.19;100991.16;16150133;19;129327;-54
2022/06/09 03:39:58;;;;;;;1.42;0.40;;;;;;;20.29;51.40;101008.94;16149499;19;129595;-55
2022/06/09 03:45:21;;;;;;;3.30;0.57;;;;;;;20.28;50.98;101018.34;16146559;19;129790;-53
2022/06/09 03:50:42;;;;;;;4.85;0.52;;;;;;;20.28;51.25;101021.13;16147398;19;130924;-55
2022/06/09 03:56:04;;;;;;;1.58;0.50;;;;;;;20.28;51.20;101029.47;16152585;19;132735;-54
2022/06/09 04:01:26;;;;;;;1.08;0.30;;;;;;;20.27;51.25;101027.78;16149412;19;129242;-55
2022/06/09 04:06:49;;;;;;;1.35;0.45;;;;;;;20.27;51.48;101035.25;16147063;19;131816;-55
2022/06/09 04:12:11;;;;;;;1.83;0.43;;;;;;;20.27;51.21;101046.38;16148915;19;129516;-54
2022/06/09 04:17:35;;;;;;;0.88;0.40;;;;;;;20.27;51.20;101065.81;16146417;19;129331;-56
2022/06/09 04:22:57;;;;;;;1.15;0.40;;;;;;;20.26;51.20;101059.44;16145927;19;131477;-56
2022/06/09 04:28:18;;;;;;;1.15;0.38;;;;;;;20.25;50.94;101068.84;16146808;19;130609;-55
2022/06/09 04:33:42;;;;;;;1.77;0.60;;;;;;;20.24;51.00;101072.72;16147994;19;130068;-54
2022/06/09 04:39:06;;;;;;;1.50;0.47;;;;;;;20.24;50.98;101083.00;16146480;19;129790;-55
2022/06/09 04:44:28;;;;;;;2.03;0.50;;;;;;;20.24;50.93;101083.84;16143079;19;128841;-56
2022/06/09 04:49:50;;;;;;;2.33;0.57;;;;;;;20.23;51.20;101082.16;16144942;19;130061;-56
2022/06/09 04:55:12;;;;;;;1.65;0.40;;;;;;;20.23;50.87;101098.81;16143910;19;129512;-54
2022/06/09 05:00:34;;;;;;;4.75;1.00;;;;;;;20.22;51.20;101102.69;16146068;19;130211;-53
2022/06/09 05:05:56;;;;;;;2.00;0.50;;;;;;;20.23;51.42;101121.03;16141579;19;129019;-55
2022/06/09 05:11:18;;;;;;;2.38;0.60;;;;;;;20.23;51.05;101121.03;16145987;19;128930;-53
2022/06/09 05:16:39;;;;;;;6.93;0.68;;;;;;;20.26;51.46;101126.09;16143997;19;129338;-56
2022/06/09 05:22:01;;;;;;;2.22;0.50;;;;;;;20.34;51.36;101132.31;16140623;19;129678;-54
2022/06/09 05:27:24;;;;;;;5.07;0.55;;;;;;;20.41;51.46;101139.41;16134585;19;129770;-54
2022/06/09 05:32:46;;;;;;;9.30;0.80;;;;;;;20.53;51.64;101142.09;16141078;19;128898;-55
2022/06/09 05:49:31;;;;;;;3.40;0.68;;;;;;;20.76;51.94;101162.47;16140973;19;130109;-55
2022/06/09 05:54:54;;;;;;;4.03;1.00;;;;;;;20.82;52.10;101167.00;16136921;19;129463;-56
2022/06/09 06:00:16;;;;;;;8.07;1.45;;;;;;;20.87;52.24;101172.66;16139118;19;129377;-56
2022/06/09 06:11:22;;;;;;;2.70;1.05;;;;;;;21.00;52.38;101184.50;16140651;19;129949;-56
2022/06/09 06:16:44;;;;;;;3.57;0.83;;;;;;;21.05;52.59;101193.78;16141538;19;130327;-57
2022/06/09 06:22:06;;;;;;;2.95;0.73;;;;;;;21.11;52.32;101210.53;16140328;19;129634;-54
2022/06/09 06:27:28;;;;;;;5.72;0.85;;;;;;;21.14;52.67;101223.91;16138905;19;129301;-56
2022/06/09 06:33:06;;;;;;;4.85;0.75;;;;;;;21.11;52.71;101230.84;16142838;19;129778;-53
2022/06/09 06:38:28;;;;;;;4.40;0.77;;;;;;;21.09;52.62;101246.94;16140882;19;129995;-56
2022/06/09 06:43:50;;;;;;;3.47;0.93;;;;;;;21.07;52.36;101260.25;16134413;19;129222;-56
2022/06/09 06:49:13;;;;;;;1.60;0.50;;;;;;;21.06;52.26;101272.50;16138751;19;129072;-55
2022/06/09 06:54:35;;;;;;;4.18;0.68;;;;;;;21.02;52.66;101272.16;16133645;19;129516;-56
2022/06/09 06:59:58;;;;;;;5.00;1.00;;;;;;;21.03;52.29;101281.38;16137160;19;129138;-55
2022/06/09 07:05:21;;;;;;;2.95;0.65;;;;;;;21.01;52.67;101287.16;16134388;19;129704;-56
2022/06/09 07:10:44;;;;;;;5.38;0.70;;;;;;;21.01;52.32;101287.16;16138959;19;129940;-56
2022/06/09 07:16:06;;;;;;;3.50;0.68;;;;;;;21.04;52.24;101291.41;16139352;19;129461;-55
2022/06/09 07:21:44;;;;;;;4.00;0.73;;;;;;;21.02;52.23;101304.72;16136175;19;130549;-57
2022/06/09 07:27:06;;;;;;;0.90;0.50;;;;;;;21.05;52.31;101299.47;16130993;19;129474;-55
2022/06/09 07:32:28;;;;;;;4.57;0.70;;;;;;;21.09;52.30;101305.38;16134323;19;129379;-56
2022/06/09 07:37:50;;;;;;;1.75;1.00;;;;;;;21.11;52.57;101319.03;16128651;19;131161;-56
2022/06/09 07:43:12;;;;;;;3.47;0.88;;;;;;;21.14;52.31;101318.50;16133914;19;129510;-55
2022/06/09 07:48:34;;;;;;;2.63;0.90;;;;;;;21.14;52.57;101326.84;16130336;19;129767;-55
2022/06/09 07:54:10;;;;;;;3.63;0.93;;;;;;;21.15;52.09;101334.09;16139349;19;130203;-55
2022/06/09 07:59:33;;;;;;;2.83;1.02;;;;;;;21.18;52.25;101325.25;16147804;19;129098;-54
2022/06/09 08:04:55;;;;;;;2.58;1.10;;;;;;;21.21;52.25;101333.94;16144518;19;130163;-56
2022/06/09 08:10:21;;;;;;;4.32;1.13;;;;;;;21.22;52.25;101343.97;16145062;19;130443;-56
2022/06/09 08:15:45;;;;;;;3.17;0.93;;;;;;;21.26;52.16;101338.75;16146107;19;130562;-56
2022/06/09 08:21:07;;;;;;;2.55;1.15;;;;;;;21.31;52.04;101329.63;16146135;19;129511;-56
2022/06/09 08:26:43;;;;;;;4.57;1.17;;;;;;;21.33;51.87;101338.56;16142644;19;129435;-54
2022/06/09 08:32:06;;;;;;;3.30;1.08;;;;;;;21.36;51.64;101354.75;16145898;19;130497;-55
2022/06/09 08:37:28;;;;;;;3.15;1.38;;;;;;;21.32;51.77;101359.13;16140359;19;130057;-55
2022/06/09 08:43:08;;;;;;;3.50;1.20;;;;;;;21.29;51.75;101379.16;16142398;19;129601;-56
2022/06/09 08:48:38;;;;;;;3.13;1.10;;;;;;;21.21;51.89;101392.38;16138213;19;129630;-55
2022/06/09 08:54:11;;;;;;;2.65;1.10;;;;;;;21.16;51.83;101392.31;16135231;19;129631;-55
2022/06/09 08:59:37;;;;;;;1.73;1.20;;;;;;;21.11;51.58;101391.38;16145954;19;129140;-56
2022/06/09 09:05:39;;;;;;;2.97;1.58;;;;;;;21.08;51.78;101403.81;16143167;19;128859;-55
2022/06/09 09:11:21;;;;;;;2.10;1.20;;;;;;;21.04;51.87;101403.50;16142300;19;129082;-56
2022/06/09 09:17:01;;;;;;;3.03;1.20;;;;;;;21.01;51.45;101397.59;16143359;19;130293;-56
2022/06/09 09:22:33;;;;;;;1.58;1.10;;;;;;;21.00;51.66;101407.03;16144720;19;129095;-53
2022/06/09 09:28:06;;;;;;;4.55;1.10;;;;;;;21.00;51.82;101413.44;16137304;19;129419;-54
2022/06/09 09:33:30;;;;;;;2.47;1.23;;;;;;;21.08;51.36;101419.69;16143012;19;129369;-55
2022/06/09 09:39:01;;;;;;;5.38;1.05;;;;;;;21.10;51.59;101421.13;16141620;19;129576;-55
2022/06/09 09:44:27;;;;;;;4.15;1.33;;;;;;;21.11;51.56;101433.09;16138986;19;128838;-56
2022/06/09 09:49:52;;;;;;;3.65;0.98;;;;;;;21.10;51.42;101440.59;16141332;19;130063;-55
2022/06/09 09:55:38;;;;;;;2.63;1.00;;;;;;;21.11;51.25;101447.84;16135686;19;129320;-56
2022/06/09 10:01:06;;;;;;;;;;;;;;;21.08;51.45;101458.63;16142866;19;129986;-55
2022/06/09 10:12:32;;;;;;;2.00;0.85;;;;;;;21.10;51.48;101485.09;16139705;19;129469;-54
2022/06/09 10:17:59;;;;;;;2.20;0.80;;;;;;;21.12;51.15;101488.47;16133793;19;129543;-55
2022/06/09 10:23:44;;;;;;;1.73;0.80;;;;;;;21.14;51.25;101503.00;16137779;19;130389;-56
2022/06/09 10:29:11;;;;;;;5.85;1.17;;;;;;;21.15;51.30;101510.25;16138160;19;129472;-53
2022/06/09 10:34:47;;;;;;;3.97;0.73;;;;;;;21.15;51.30;101515.81;16139186;19;129496;-57
2022/06/09 10:40:18;;;;;;;1.45;0.70;;;;;;;21.16;51.04;101517.50;16139464;19;130544;-55
2022/06/09 10:45:52;;;;;;;2.80;0.93;;;;;;;21.16;50.86;101523.06;16134781;19;129862;-55
2022/06/09 10:57:40;;;;;;;0.80;0.60;;;;;;;21.18;50.77;101515.28;16128847;19;130085;-56
2022/06/09 11:03:11;;;;;;;1.70;0.70;;;;;;;21.20;51.15;101513.13;16134550;19;129576;-55
2022/06/09 11:09:04;;;;;;;1.10;0.70;;;;;;;21.21;50.83;101520.38;16129715;19;129263;-56
2022/06/09 11:14:59;;;;;;;1.92;0.80;;;;;;;21.18;51.02;101526.44;16135104;19;129684;-56
2022/06/09 11:20:43;;;;;;;1.05;0.73;;;;;;;21.14;50.95;101528.03;16132278;19;129676;-55
2022/06/09 11:26:29;;;;;;;1.75;0.60;;;;;;;21.11;51.12;101522.97;16137673;19;130439;-56
2022/06/09 11:31:53;;;;;;;1.67;0.87;;;;;;;21.10;50.91;101512.91;16151408;19;128953;-56
2022/06/09 11:37:21;;;;;;;2.22;0.80;;;;;;;21.11;51.10;101524.91;16149256;19;129532;-56
2022/06/09 11:43:05;;;;;;;1.60;0.60;;;;;;;21.11;50.89;101536.88;16150165;19;129489;-56
2022/06/09 11:48:35;;;;;;;1.80;0.70;;;;;;;21.11;50.88;101536.88;16143949;19;130415;-56
2022/06/09 11:54:00;;;;;;;4.28;0.50;;;;;;;21.10;50.98;101540.75;16143332;19;134211;-54
2022/06/09 11:59:42;;;;;;;;;;;;;;;21.03;50.73;101551.19;16149764;19;130947;-55
2022/06/09 12:05:29;;;;;;;2.17;0.70;;;;;;;21.06;50.59;101561.78;16145505;19;129308;-57
2022/06/09 12:11:08;;;;;;;3.03;0.70;;;;;;;21.01;50.48;101562.53;16150728;19;129575;-57
2022/06/09 12:16:52;;;;;;;2.83;0.60;;;;;;;21.01;50.39;101570.88;16149396;19;129730;-57
2022/06/09 12:22:39;;;;;;;1.38;0.80;;;;;;;21.02;49.77;101574.53;16148824;19;129403;-57
2022/06/09 12:28:41;;;;;;;1.33;0.73;;;;;;;21.02;49.86;101566.19;16143621;19;129248;-58
2022/06/09 12:34:11;;;;;;;1.80;0.75;;;;;;;21.05;49.89;101560.09;16143355;19;129720;-56
2022/06/09 12:39:40;;;;;;;1.95;0.65;;;;;;;21.07;49.86;101574.63;16145305;19;130064;-55
2022/06/09 12:45:15;;;;;;;3.60;1.10;;;;;;;21.10;49.81;101579.69;16146238;19;128965;-57
2022/06/09 12:50:48;;;;;;;2.97;0.90;;;;;;;21.11;49.99;101573.03;16144373;19;128950;-56
2022/06/09 12:56:41;;;;;;;4.43;0.77;;;;;;;21.12;49.49;101582.22;16140181;19;130478;-57
2022/06/09 13:02:18;;;;;;;2.17;0.80;;;;;;;21.13;49.60;101601.47;16145648;19;130142;-57
2022/06/09 13:07:58;;;;;;;2.70;0.80;;;;;;;21.13;49.61;101601.47;16142264;19;128998;-57
2022/06/09 13:13:27;;;;;;;2.15;0.82;;;;;;;21.11;49.39;101598.09;16141223;19;129351;-57
2022/06/09 13:18:56;;;;;;;2.10;0.90;;;;;;;21.13;49.34;101587.56;16146335;19;130369;-57
2022/06/09 13:24:28;;;;;;;4.18;0.82;;;;;;;21.13;49.48;101615.38;16143842;19;129101;-57
2022/06/09 13:29:59;;;;;;;2.83;0.88;;;;;;;21.15;49.07;101626.25;16144106;19;128847;-53
2022/06/09 13:35:26;;;;;;;2.47;0.75;;;;;;;21.15;48.97;101615.97;16144468;19;130789;-57
2022/06/09 13:41:00;;;;;;;4.20;0.77;;;;;;;21.17;48.86;101616.56;16145374;19;129389;-57
2022/06/09 13:46:26;;;;;;;2.80;1.00;;;;;;;21.17;49.07;101636.03;16140041;19;129388;-57
2022/06/09 13:51:58;;;;;;;2.65;0.70;;;;;;;21.17;48.79;101640.75;16138403;19;129318;-56
2022/06/09 13:57:25;;;;;;;2.53;0.80;;;;;;;21.14;49.05;101653.25;16141844;19;130703;-58
2022/06/09 14:02:52;;;;;;;3.95;1.00;;;;;;;21.12;48.97;101660.97;16142251;19;129386;-56
2022/06/09 14:08:23;;;;;;;4.97;0.82;;;;;;;21.10;48.71;101676.25;16139602;19;129895;-56
2022/06/09 14:13:45;;;;;;;4.05;1.05;;;;;;;21.09;48.62;101672.59;16141304;19;128884;-57
2022/06/09 14:19:07;;;;;;;3.63;0.70;;;;;;;21.08;48.60;101670.91;16140263;19;128842;-55
2022/06/09 14:24:29;;;;;;;2.63;0.80;;;;;;;21.10;48.72;101679.84;16141635;19;129208;-56
2022/06/09 14:29:51;;;;;;;3.13;0.68;;;;;;;21.09;48.75;101689.28;16139724;19;129155;-54
2022/06/09 14:35:16;;;;;;;3.33;0.88;;;;;;;21.10;48.60;101696.53;16142579;19;129059;-56
2022/06/09 14:40:40;;;;;;;3.95;0.73;;;;;;;21.11;48.54;101687.13;16141265;19;129318;-56
2022/06/09 14:46:02;;;;;;;2.50;0.75;;;;;;;21.12;48.46;101688.81;16138379;19;129481;-55
2022/06/09 14:51:25;;;;;;;3.58;0.73;;;;;;;21.13;48.27;101698.84;16137192;19;129987;-55
2022/06/09 14:56:47;;;;;;;4.00;1.00;;;;;;;21.14;48.03;101697.75;16136921;19;130343;-56
2022/06/09 15:02:16;;;;;;;4.68;1.00;;;;;;;21.14;47.71;101696.91;16136625;19;130256;-57
2022/06/09 15:07:38;;;;;;;3.47;0.85;;;;;;;21.13;47.84;101701.63;16133611;19;129320;-57
2022/06/09 15:13:00;;;;;;;2.30;0.80;;;;;;;21.14;47.84;101703.31;16135122;19;129999;-56
2022/06/09 15:18:22;;;;;;;3.00;0.70;;;;;;;21.14;47.54;101702.47;16134817;19;128963;-55
2022/06/09 15:23:46;;;;;;;2.30;0.57;;;;;;;21.13;48.12;101712.75;16134461;19;129271;-56
2022/06/09 15:29:08;;;;;;;3.97;1.10;;;;;;;21.12;47.70;101711.06;16131036;19;129360;-55
2022/06/09 15:34:31;;;;;;;2.65;0.75;;;;;;;21.10;47.46;101704.06;16137486;19;128989;-56
2022/06/09 15:39:53;;;;;;;6.32;1.10;;;;;;;21.09;47.22;101711.53;16135608;19;129681;-56
2022/06/09 15:45:18;;;;;;;2.95;0.80;;;;;;;21.11;47.22;101714.94;16133768;19;130193;-54
2022/06/09 15:50:40;;;;;;;4.30;1.00;;;;;;;21.11;47.30;101714.09;16132926;19;129492;-55
2022/06/09 15:56:03;;;;;;;9.85;1.20;;;;;;;21.11;46.85;101717.72;16129126;19;129341;-56
2022/06/09 16:01:25;;;;;;;3.17;1.08;;;;;;;21.11;46.70;101714.94;16135039;19;129989;-56
2022/06/09 16:06:47;;;;;;;7.72;1.40;;;;;;;21.10;46.74;101724.38;16129900;19;129640;-56
2022/06/09 16:12:09;;;;;;;5.45;1.10;;;;;;;21.11;46.70;101723.28;16133750;19;129453;-55
2022/06/09 16:17:31;;;;;;;4.35;1.00;;;;;;;21.11;46.28;101714.94;16148320;19;130992;-56
2022/06/09 16:22:53;;;;;;;4.82;0.82;;;;;;;21.12;46.20;101713.84;16145922;19;129296;-56
2022/06/09 16:28:17;;;;;;;4.45;1.10;;;;;;;21.12;46.70;101727.75;16140190;19;129287;-56
2022/06/09 16:33:39;;;;;;;2.90;0.80;;;;;;;21.12;46.92;101719.41;16147419;19;129688;-58
2022/06/09 16:39:03;;;;;;;3.25;0.82;;;;;;;21.13;46.97;101737.81;16145113;19;130291;-56
2022/06/09 16:44:24;;;;;;;3.40;0.80;;;;;;;21.12;46.63;101736.09;16146824;19;129717;-54
2022/06/09 16:49:46;;;;;;;3.40;0.77;;;;;;;21.11;46.69;101747.50;16142257;19;130002;-55
2022/06/09 16:55:11;;;;;;;5.47;0.70;;;;;;;21.10;46.83;101746.63;16140290;19;129581;-55
2022/06/09 17:00:34;;;;;;;2.95;1.13;;;;;;;21.12;46.62;101744.44;16143174;19;130227;-53
2022/06/09 17:06:02;;;;;;;10.70;1.48;;;;;;;21.16;46.59;101750.38;16141781;19;129310;-55
2022/06/09 17:11:25;;;;;;;5.60;1.73;;;;;;;21.16;47.26;101748.44;16141982;19;128899;-55
2022/06/09 17:16:47;;;;;;;9.13;1.85;;;;;;;21.20;47.09;101757.16;16144268;19;129440;-53
2022/06/09 17:22:09;;;;;;;9.13;1.50;;;;;;;21.25;47.10;101770.34;16144090;19;130249;-55
2022/06/09 17:27:33;;;;;;;7.13;1.73;;;;;;;21.27;46.84;101763.41;16138583;19;129670;-55
2022/06/09 17:32:58;;;;;;;7.00;1.40;;;;;;;21.29;46.62;101777.13;16141255;19;129601;-53
2022/06/09 17:38:21;;;;;;;3.83;1.20;;;;;;;21.28;46.86;101781.81;16141540;19;129690;-53
2022/06/09 17:43:43;;;;;;;8.35;1.60;;;;;;;21.27;46.44;101782.06;16142960;19;130494;-54
2022/06/09 17:49:05;;;;;;;6.55;1.42;;;;;;;21.26;46.96;101788.72;16134763;19;129033;-56
2022/06/09 17:54:27;;;;;;;4.55;1.30;;;;;;;21.25;46.61;101795.38;16135544;19;129871;-56
2022/06/09 17:59:48;;;;;;;8.00;1.55;;;;;;;21.23;46.09;101801.19;16140271;19;131163;-54
2022/06/09 18:05:10;;;;;;;7.07;1.90;;;;;;;21.22;46.22;101800.34;16142242;19;130803;-56
2022/06/09 18:10:36;;;;;;;8.75;1.20;;;;;;;21.22;46.03;101800.34;16142445;19;129822;-55
2022/06/09 18:15:58;;;;;;;6.57;1.35;;;;;;;21.23;46.15;101806.75;16137873;19;129110;-57
2022/06/09 18:21:22;;;;;;;4.72;1.10;;;;;;;21.22;45.89;101810.63;16136913;19;129059;-55
2022/06/09 18:26:48;;;;;;;6.22;1.40;;;;;;;21.24;46.58;101813.16;16137021;19;130109;-53
2022/06/09 18:32:10;;;;;;;6.43;1.55;;;;;;;21.25;46.16;101823.19;16138641;19;129326;-53
2022/06/09 18:37:32;;;;;;;6.05;1.38;;;;;;;21.27;46.36;101824.66;16137080;19;129053;-52
2022/06/09 18:42:54;;;;;;;9.95;1.65;;;;;;;21.29;46.68;101835.56;16139028;19;129556;-54
2022/06/09 18:48:31;;;;;;;4.85;1.35;;;;;;;21.32;46.56;101843.41;16133294;19;129475;-58
2022/06/09 18:54:00;;;;;;;3.42;1.13;;;;;;;21.30;46.40;101851.13;16132475;19;129367;-56
2022/06/09 18:59:22;;;;;;;4.22;1.45;;;;;;;21.30;46.37;101856.69;16135796;19;129703;-55
2022/06/09 19:04:43;;;;;;;5.40;1.02;;;;;;;21.29;46.33;101864.22;16129124;19;129853;-54
2022/06/09 19:10:11;;;;;;;8.13;1.17;;;;;;;21.29;46.40;101868.94;16133164;19;130032;-53
2022/06/09 19:15:49;;;;;;;4.68;1.30;;;;;;;21.28;46.66;101864.47;16137764;19;130096;-54
2022/06/09 19:21:11;;;;;;;4.72;1.13;;;;;;;21.28;46.46;101870.88;16134361;19;128852;-54
2022/06/09 19:26:34;;;;;;;8.20;1.30;;;;;;;21.28;46.78;101875.59;16130439;19;130185;-55
2022/06/09 19:31:56;;;;;;;8.95;1.10;;;;;;;21.30;47.01;101874.25;16131477;19;129569;-55
2022/06/09 19:37:23;;;;;;;6.10;0.90;;;;;;;21.34;47.02;101894.09;16132024;19;129403;-55
2022/06/09 19:42:45;;;;;;;6.38;1.00;;;;;;;21.34;47.01;101891.31;16127819;19;129710;-56
2022/06/09 19:48:11;;;;;;;7.75;1.15;;;;;;;21.36;47.22;101905.84;16140416;19;129626;-54
2022/06/09 19:53:32;;;;;;;4.50;0.95;;;;;;;21.36;47.31;101911.41;16147257;19;130779;-55
2022/06/09 19:58:55;;;;;;;2.92;0.70;;;;;;;21.36;47.13;101912.25;16150687;19;129410;-56
2022/06/09 20:04:17;;;;;;;4.00;1.10;;;;;;;21.35;47.56;101910.56;16150735;19;129551;-54
2022/06/09 20:09:39;;;;;;;2.95;0.85;;;;;;;21.37;47.67;101924.25;16146184;19;129709;-54
2022/06/09 20:15:01;;;;;;;5.68;1.00;;;;;;;21.39;47.32;101930.44;16145915;19;128937;-55
2022/06/09 20:20:29;;;;;;;2.65;0.85;;;;;;;21.40;47.65;101926.56;16144499;19;129677;-58
2022/06/09 20:25:54;;;;;;;3.88;0.82;;;;;;;21.42;47.46;101940.22;16148824;19;128821;-55
2022/06/09 20:31:20;;;;;;;3.38;0.85;;;;;;;21.41;47.51;101950.53;16147440;19;129079;-56
2022/06/09 20:36:44;;;;;;;4.38;1.10;;;;;;;21.41;47.67;101956.09;16146876;19;129081;-57
2022/06/09 20:42:06;;;;;;;2.85;0.70;;;;;;;21.43;47.71;101956.69;16144819;19;129411;-56
2022/06/09 20:47:30;;;;;;;3.60;1.00;;;;;;;21.43;47.83;101956.69;16144248;19;129627;-53
2022/06/09 20:52:54;;;;;;;5.38;0.88;;;;;;;21.43;48.02;101961.41;16141892;19;129443;-54
2022/06/09 20:58:17;;;;;;;1.92;0.60;;;;;;;21.43;47.88;101962.25;16140420;19;129928;-54
2022/06/09 21:03:39;;;;;;;5.28;0.70;;;;;;;21.45;47.83;101959.25;16144447;19;129455;-58
2022/06/09 21:09:02;;;;;;;8.13;0.77;;;;;;;21.42;47.60;101962.50;16146035;19;129136;-57
2022/06/09 21:20:05;;;;;;;4.10;0.77;;;;;;;21.33;47.53;101960.06;16151120;19;129496;-56
2022/06/09 21:25:27;;;;;;;2.25;0.52;;;;;;;21.30;47.49;101968.03;16148315;19;129904;-57
2022/06/09 21:30:50;;;;;;;6.82;0.60;;;;;;;21.27;47.90;101971.31;16148421;19;130638;-57
2022/06/09 21:36:12;;;;;;;1.92;0.55;;;;;;;21.22;47.93;101978.44;16151243;19;129126;-57
2022/06/09 21:41:34;;;;;;;4.05;0.70;;;;;;;21.20;47.66;101977.81;16151749;19;129302;-54
2022/06/09 21:46:56;;;;;;;4.20;0.50;;;;;;;21.17;47.95;101983.84;16148154;19;130159;-58
2022/06/09 21:52:18;;;;;;;1.98;0.50;;;;;;;21.16;47.97;101996.09;16147517;19;130190;-57
2022/06/09 21:57:39;;;;;;;2.75;0.57;;;;;;;21.14;47.73;101997.41;16143484;19;129255;-57
2022/06/09 22:03:03;;;;;;;2.20;0.63;;;;;;;21.12;47.92;101992.09;16148229;19;130492;-57
2022/06/09 22:08:25;;;;;;;2.38;0.60;;;;;;;21.10;47.79;102002.59;16148108;19;129102;-56
2022/06/09 22:13:47;;;;;;;0.80;0.22;;;;;;;21.08;47.88;102004.75;16152287;19;129387;-57
2022/06/09 22:19:08;;;;;;;2.03;0.40;;;;;;;21.06;48.20;101996.66;16188655;19;130478;-56
2022/06/09 22:24:30;;;;;;;3.40;0.68;;;;;;;21.05;47.74;102008.00;16213162;19;129136;-57
2022/06/09 22:29:52;;;;;;;1.63;0.47;;;;;;;21.03;47.88;102011.03;16209051;19;128818;-56
2022/06/09 22:35:15;;;;;;;3.05;0.40;;;;;;;21.01;48.29;102017.94;16215178;19;129095;-55
2022/06/09 22:40:37;;;;;;;1.20;0.30;;;;;;;21.01;47.79;102017.94;16216105;19;128409;-51
2022/06/09 22:45:59;;;;;;;1.02;0.25;;;;;;;20.99;48.32;102017.31;16217217;19;128955;-55
2022/06/09 22:51:21;;;;;;;1.08;0.40;;;;;;;20.97;48.30;102027.84;16211946;19;129477;-57
2022/06/09 22:56:42;;;;;;;0.40;0.30;;;;;;;20.96;48.37;102017.78;16212555;19;129235;-57
2022/06/09 23:02:06;;;;;;;1.17;0.30;;;;;;;20.95;48.06;102014.16;16218305;19;129415;-52
2022/06/09 23:07:28;;;;;;;2.42;0.52;;;;;;;20.94;47.87;102009.69;16216681;19;129688;-58
2022/06/09 23:12:52;;;;;;;1.05;0.20;;;;;;;20.93;48.12;102002.41;16213862;19;129348;-56
2022/06/09 23:18:17;;;;;;;1.25;0.13;;;;;;;20.92;48.10;102011.84;16217690;19;128954;-57
2022/06/09 23:23:39;;;;;;;1.20;0.30;;;;;;;20.90;48.06;102003.75;16225902;19;128130;-56
2022/06/09 23:29:01;;;;;;;0.55;0.40;;;;;;;20.89;47.88;102013.19;16228897;19;128506;-55
2022/06/09 23:34:23;;;;;;;0.65;0.20;;;;;;;20.88;48.06;102005.06;16228255;19;128827;-57
2022/06/09 23:39:45;;;;;;;1.08;0.28;;;;;;;20.88;48.19;102005.06;16232139;19;129125;-54
2022/06/09 23:50:59;;;;;;;0.55;0.22;;;;;;;20.86;47.96;102010.88;16226614;19;128299;-58
2022/06/09 23:56:25;;;;;;;1.00;0.45;;;;;;;20.85;47.92;102011.09;16209433;19;129195;-54
